Xia Chuan 94 — V7GB8 — position and weather

sailwx.info

Track history (hours):
 
Tides and Currents Weather Stations Pressure Air Temp Water Temp Dewpoint Dewpoint Depression Visibility Wind Speed Wind Dir Waves Ship Positions

Xia Chuan 94

Last reported at 2016-Apr-30 08:10 UTC. Time now 2016-Jun-29 16:36 UTC.
Position N 24°32' E 118°13'.
Warning: this ship's position is months out of date.

Length 78 m; draft 4.7 m.

Type: Other ship. MMSI: 538006525.

Date/timePositionNaut miles runAvg speedWind from/ knotsBaromVisibWave heightAir tempDewpointWater temp
2016-Apr-30 08:10N 24°32' E 118°13'0 0.0
2016-Apr-30 07:34N 24°32' E 118°13'4 4.3
2016-Apr-30 06:33N 24°28' E 118°13'8 7.6
2016-Apr-30 05:34N 24°24' E 118°06'0 0.1
2016-Apr-30 04:33N 24°24' E 118°06'0 0.0
2016-Apr-30 03:33N 24°23' E 118°06'0 0.0
2016-Apr-30 02:34N 24°23' E 118°06'0 0.0
2016-Apr-30 01:33N 24°23' E 118°06'0 0.0
2016-Apr-30 00:34N 24°23' E 118°06'0 0.0
2016-Apr-29 23:33N 24°23' E 118°06'0 0.0
2016-Apr-29 22:33N 24°24' E 118°06'0 0.1
2016-Apr-29 21:34N 24°24' E 118°06'0 0.0
2016-Apr-29 20:33N 24°24' E 118°06'0 0.0
2016-Apr-29 19:34N 24°24' E 118°06'0 0.0
2016-Apr-29 18:34N 24°24' E 118°06'0 0.0
2016-Apr-29 17:34N 24°24' E 118°06'0 0.0
2016-Apr-29 16:33N 24°24' E 118°06'0 0.1
2016-Apr-29 15:34N 24°24' E 118°06'0 0.0
2016-Apr-29 14:33N 24°24' E 118°06'0 0.0
2016-Apr-29 13:33N 24°24' E 118°06'0 0.0
2016-Apr-29 12:33N 24°23' E 118°06'0 0.0
2016-Apr-29 11:34N 24°23' E 118°06'0 0.0
2016-Apr-29 10:33N 24°24' E 118°06'0 0.1
2016-Apr-29 09:33N 24°24' E 118°06'0 0.0
2016-Apr-29 08:34N 24°24' E 118°06'0 0.0
2016-Apr-29 07:33N 24°24' E 118°06'3 2.8
2016-Apr-29 06:34N 24°25' E 118°03'7 7.2
2016-Apr-29 05:34N 24°22' E 118°10'10 9.6
2016-Apr-29 04:32N 24°31' E 118°13'1 1.0
2016-Apr-29 03:33N 24°32' E 118°13'  
2016-Apr-26 03:30N 24°32' E 118°13'  
2016-Apr-23 07:23N 24°32' E 118°13'0 0.1
2016-Apr-23 06:30N 24°32' E 118°13'  
Track history (hours):
 
Tides and Currents Weather Stations Pressure Air Temp Water Temp Dewpoint Dewpoint Depression Visibility Wind Speed Wind Dir Waves Ship Positions

Xia Chuan 94

Last reported at 2016-Apr-30 08:10 UTC. Time now 2016-Jun-29 16:36 UTC.
Position N 24°32' E 118°13'.
Warning: this ship's position is months out of date.

Length 78 m; draft 4.7 m.

Type: Other ship. MMSI: 538006525.

Date/timePositionNaut miles runAvg speedWind from/ knotsBaromVisibWave heightAir tempDewpointWater temp
2016-Apr-30 08:10N 24°32' E 118°13'0 0.0
2016-Apr-30 07:34N 24°32' E 118°13'4 4.3
2016-Apr-30 06:33N 24°28' E 118°13'8 7.6
2016-Apr-30 05:34N 24°24' E 118°06'0 0.1
2016-Apr-30 04:33N 24°24' E 118°06'0 0.0
2016-Apr-30 03:33N 24°23' E 118°06'0 0.0
2016-Apr-30 02:34N 24°23' E 118°06'0 0.0
2016-Apr-30 01:33N 24°23' E 118°06'0 0.0
2016-Apr-30 00:34N 24°23' E 118°06'0 0.0
2016-Apr-29 23:33N 24°23' E 118°06'0 0.0
2016-Apr-29 22:33N 24°24' E 118°06'0 0.1
2016-Apr-29 21:34N 24°24' E 118°06'0 0.0
2016-Apr-29 20:33N 24°24' E 118°06'0 0.0
2016-Apr-29 19:34N 24°24' E 118°06'0 0.0
2016-Apr-29 18:34N 24°24' E 118°06'0 0.0
2016-Apr-29 17:34N 24°24' E 118°06'0 0.0
2016-Apr-29 16:33N 24°24' E 118°06'0 0.1
2016-Apr-29 15:34N 24°24' E 118°06'0 0.0
2016-Apr-29 14:33N 24°24' E 118°06'0 0.0
2016-Apr-29 13:33N 24°24' E 118°06'0 0.0
2016-Apr-29 12:33N 24°23' E 118°06'0 0.0
2016-Apr-29 11:34N 24°23' E 118°06'0 0.0
2016-Apr-29 10:33N 24°24' E 118°06'0 0.1
2016-Apr-29 09:33N 24°24' E 118°06'0 0.0
2016-Apr-29 08:34N 24°24' E 118°06'0 0.0
2016-Apr-29 07:33N 24°24' E 118°06'3 2.8
2016-Apr-29 06:34N 24°25' E 118°03'7 7.2
2016-Apr-29 05:34N 24°22' E 118°10'10 9.6
2016-Apr-29 04:32N 24°31' E 118°13'1 1.0
2016-Apr-29 03:33N 24°32' E 118°13'  
2016-Apr-26 03:30N 24°32' E 118°13'  
2016-Apr-23 07:23N 24°32' E 118°13'0 0.1
2016-Apr-23 06:30N 24°32' E 118°13'  

Dump ship's entire track history